Time;durP1;ratioP1;P1;durP2;ratioP2;P2;SDS_P1;SDS_P2;PMS_P1;PMS_P2;Temp;Humidity;BMP_temperature;BMP_pressure;BME280_temperature;BME280_humidity;BME280_pressure;Samples;Min_cycle;Max_cycle;Signal;HPM_P1;HPM_P2
2021/10/02 00:46:02;;;;;;;18.87;9.23;;;;;;;12.71;95.76;96311.03;5073398;28;20246;-74
2021/10/02 00:48:29;;;;;;;18.63;9.07;;;;;;;12.78;96.62;96317.22;5074319;28;20219;-74
2021/10/02 00:50:59;;;;;;;18.47;8.93;;;;;;;13.04;94.94;96307.72;5073812;28;20219;-74
2021/10/02 00:53:28;;;;;;;18.57;8.80;;;;;;;13.06;95.99;96312.81;5075110;28;20215;-74
2021/10/02 00:55:54;;;;;;;18.13;9.17;;;;;;;13.11;94.90;96308.59;5073692;28;20223;-74
2021/10/02 00:58:21;;;;;;;18.03;8.50;;;;;;;13.06;94.28;96311.00;5073943;28;20676;-74
2021/10/02 01:00:52;;;;;;;17.37;8.70;;;;;;;13.40;93.63;96313.72;5074145;28;20200;-74
2021/10/02 01:03:35;;;;;;;19.73;11.07;;;;;;;13.33;94.97;96307.56;5074543;28;20646;-74
2021/10/02 01:06:20;;;;;;;17.10;9.23;;;;;;;13.28;95.48;96306.50;5073615;28;20246;-74
2021/10/02 01:08:55;;;;;;;24.13;10.07;;;;;;;13.11;96.73;96305.97;5074347;28;20211;-74
2021/10/02 01:11:32;;;;;;;18.70;9.83;;;;;;;13.42;95.20;96311.69;5074063;28;20215;-74
2021/10/02 01:14:07;;;;;;;19.33;9.80;;;;;;;13.50;94.71;96307.09;5074424;28;20285;-74
2021/10/02 01:16:37;;;;;;;19.13;9.97;;;;;;;13.30;96.39;96307.13;5073051;28;20220;-74
2021/10/02 01:19:29;;;;;;;18.17;9.87;;;;;;;13.58;94.40;96295.50;5074494;28;20211;-74
2021/10/02 01:22:09;;;;;;;16.27;9.40;;;;;;;13.65;94.11;96294.53;5070871;28;20649;-74
2021/10/02 01:24:50;;;;;;;21.27;9.90;;;;;;;13.73;93.75;96293.56;5074188;28;20195;-74
2021/10/02 01:27:48;;;;;;;18.73;10.23;;;;;;;13.59;94.51;96292.69;5072399;28;21191;-74
2021/10/02 01:30:19;;;;;;;20.57;10.00;;;;;;;13.24;95.26;96297.28;5074039;28;20295;-74
2021/10/02 01:32:55;;;;;;;17.93;10.07;;;;;;;13.48;95.01;96295.88;5073649;28;20219;-74
2021/10/02 01:35:31;;;;;;;19.00;9.97;;;;;;;13.16;96.35;96295.63;5074149;28;20230;-74
2021/10/02 01:48:59;;;;;;;17.60;9.37;;;;;;;13.20;93.60;96290.75;5060736;28;20215;-74
2021/10/02 01:51:26;;;;;;;17.27;9.40;;;;;;;13.31;93.64;96293.69;5060148;28;20201;-74
2021/10/02 01:53:55;;;;;;;19.37;9.00;;;;;;;13.27;93.77;96286.34;5060353;28;20225;-74
2021/10/02 01:56:24;;;;;;;16.00;8.90;;;;;;;13.32;93.68;96290.03;5058025;28;20243;-74
2021/10/02 01:58:54;;;;;;;20.10;9.80;;;;;;;13.46;93.26;96286.47;5059635;28;20227;-74
2021/10/02 02:01:22;;;;;;;18.90;9.73;;;;;;;13.36;93.92;96287.84;5059840;28;20211;-74
2021/10/02 02:03:55;;;;;;;15.97;9.50;;;;;;;13.35;93.74;96288.84;5059537;28;20594;-74
2021/10/02 02:06:24;;;;;;;19.03;8.93;;;;;;;13.45;93.78;96280.38;5058800;28;20436;-74
2021/10/02 02:08:51;;;;;;;14.47;8.40;;;;;;;13.59;92.79;96287.41;5060468;28;20207;-74
2021/10/02 02:11:19;;;;;;;15.60;8.43;;;;;;;13.50;92.20;96282.44;5059357;28;21062;-74
2021/10/02 02:13:45;;;;;;;15.97;9.10;;;;;;;13.48;92.29;96281.81;5059078;28;21082;-74
2021/10/02 02:16:14;;;;;;;15.70;8.87;;;;;;;13.52;92.64;96283.06;5059009;28;20224;-74
2021/10/02 02:18:41;;;;;;;20.73;9.33;;;;;;;13.42;92.60;96278.09;5059174;28;20205;-74
2021/10/02 02:21:12;;;;;;;14.67;8.70;;;;;;;13.33;93.15;96280.25;5056035;28;20200;-74
2021/10/02 02:23:39;;;;;;;18.27;9.57;;;;;;;13.25;93.58;96285.69;5059492;28;20243;-74
2021/10/02 02:26:08;;;;;;;16.77;8.87;;;;;;;13.38;93.54;96290.09;5058508;28;20669;-74
2021/10/02 02:28:37;;;;;;;18.87;9.07;;;;;;;13.22;94.75;96283.44;5055438;28;20201;-74
2021/10/02 02:31:05;;;;;;;16.17;8.67;;;;;;;13.09;95.32;96288.63;5058697;28;20585;-74
2021/10/02 02:33:35;;;;;;;21.03;9.20;;;;;;;13.34;94.26;96282.75;5059196;28;20234;-74
2021/10/02 02:36:02;;;;;;;17.53;9.60;;;;;;;13.18;94.40;96276.91;5058277;28;20212;-74
2021/10/02 02:38:29;;;;;;;18.00;9.73;;;;;;;13.32;94.22;96284.75;5059184;28;20222;-74
2021/10/02 02:40:56;;;;;;;17.43;9.90;;;;;;;13.14;94.88;96286.25;5059489;28;20976;-74
2021/10/02 02:43:27;;;;;;;18.17;9.90;;;;;;;13.09;95.43;96292.09;5058052;28;20235;-74
2021/10/02 02:45:58;;;;;;;20.57;9.83;;;;;;;13.35;95.08;96281.69;5058046;28;20575;-74
2021/10/02 02:48:28;;;;;;;18.60;9.23;;;;;;;13.32;94.92;96289.22;5058717;28;20235;-75
2021/10/02 02:50:59;;;;;;;21.27;10.30;;;;;;;13.32;95.91;96282.09;5058671;28;20200;-74
2021/10/02 02:53:32;;;;;;;20.07;10.40;;;;;;;13.30;96.23;96288.59;5058849;28;20224;-74
2021/10/02 02:56:04;;;;;;;19.67;10.67;;;;;;;13.40;95.72;96290.72;5058170;28;20204;-74
2021/10/02 02:58:32;;;;;;;16.00;9.43;;;;;;;13.15;95.38;96296.63;5057826;28;20196;-74
2021/10/02 03:01:01;;;;;;;19.87;9.50;;;;;;;13.38;94.74;96299.03;5057267;28;20224;-74
2021/10/02 03:03:34;;;;;;;19.83;10.03;;;;;;;13.62;94.33;96287.00;5058251;28;20217;-74
2021/10/02 03:06:06;;;;;;;20.70;9.97;;;;;;;13.70;93.77;96286.84;5057580;28;20200;-74
2021/10/02 03:08:35;;;;;;;21.30;9.60;;;;;;;13.63;94.09;96279.88;5057373;28;20209;-74
2021/10/02 03:11:03;;;;;;;19.73;9.67;;;;;;;13.57;93.56;96281.47;5057831;28;20657;-74
2021/10/02 03:13:32;;;;;;;18.80;9.83;;;;;;;13.59;93.67;96287.41;5058302;28;20224;-74
2021/10/02 03:16:00;;;;;;;16.60;9.17;;;;;;;13.50;94.36;96288.56;5056584;28;20200;-74
2021/10/02 03:18:28;;;;;;;19.53;9.27;;;;;;;13.46;94.28;96297.88;5058066;28;20231;-74
2021/10/02 03:20:57;;;;;;;17.30;8.50;;;;;;;13.53;94.01;96285.50;5054744;28;20676;-74
2021/10/02 03:23:27;;;;;;;18.87;8.83;;;;;;;13.65;94.27;96281.31;5057885;28;20225;-74
2021/10/02 03:25:55;;;;;;;16.10;9.07;;;;;;;13.56;94.08;96286.97;5057105;28;20212;-74
2021/10/02 03:28:22;;;;;;;15.97;8.43;;;;;;;13.53;94.12;96282.88;5057539;28;20211;-74
2021/10/02 03:30:49;;;;;;;16.60;9.10;;;;;;;13.50;94.02;96285.91;5057359;28;20974;-74
2021/10/02 03:33:17;;;;;;;15.43;8.10;;;;;;;13.38;94.53;96286.63;5057628;28;20720;-74
2021/10/02 03:35:43;;;;;;;19.33;9.53;;;;;;;13.43;94.47;96276.28;5057066;28;20242;-74
2021/10/02 03:38:10;;;;;;;20.87;9.07;;;;;;;13.44;94.19;96270.78;5057795;28;20224;-74
2021/10/02 03:40:38;;;;;;;18.33;9.50;;;;;;;13.63;94.62;96272.75;5057394;28;20201;-74
2021/10/02 03:43:05;;;;;;;17.93;9.23;;;;;;;13.55;94.05;96277.38;5057699;28;20315;-74
2021/10/02 03:45:31;;;;;;;15.47;8.83;;;;;;;13.54;94.41;96283.66;5056554;28;20204;-74
2021/10/02 03:47:58;;;;;;;15.98;8.40;;;;;;;13.55;94.26;96282.66;5057422;28;20668;-74
2021/10/02 03:50:25;;;;;;;15.80;8.23;;;;;;;13.52;94.02;96280.41;5057289;28;20205;-74
2021/10/02 03:52:51;;;;;;;17.50;8.87;;;;;;;13.48;93.76;96271.22;5057676;28;20236;-74
2021/10/02 03:55:18;;;;;;;16.17;8.93;;;;;;;13.58;93.33;96269.88;5057259;28;20204;-74
2021/10/02 03:57:46;;;;;;;18.00;9.43;;;;;;;13.69;94.10;96264.00;5057048;28;20224;-74
2021/10/02 04:00:14;;;;;;;16.17;8.70;;;;;;;13.72;93.71;96274.22;5057034;28;20207;-75
2021/10/02 04:02:41;;;;;;;16.90;9.00;;;;;;;13.63;93.63;96272.75;5053279;28;21209;-74
2021/10/02 04:05:08;;;;;;;15.80;8.13;;;;;;;13.63;94.13;96278.06;5057298;28;20210;-74
2021/10/02 04:07:35;;;;;;;17.40;8.40;;;;;;;13.50;94.17;96283.25;5057004;28;20207;-74
2021/10/02 04:10:02;;;;;;;14.87;8.23;;;;;;;13.58;93.72;96284.91;5056835;28;20204;-74
2021/10/02 04:12:28;;;;;;;15.97;8.60;;;;;;;13.32;94.53;96291.88;5056818;28;20220;-74
2021/10/02 04:14:56;;;;;;;13.43;8.07;;;;;;;13.49;94.58;96283.44;5056969;28;20699;-74
2021/10/02 04:17:23;;;;;;;14.27;8.03;;;;;;;13.32;94.94;96284.75;5056991;28;20595;-74
2021/10/02 04:19:49;;;;;;;18.00;8.57;;;;;;;13.33;94.57;96286.38;5056989;28;20204;-74
2021/10/02 04:22:16;;;;;;;16.37;8.80;;;;;;;13.37;94.83;96286.81;5053777;28;20672;-74
2021/10/02 04:24:43;;;;;;;17.57;7.57;;;;;;;13.46;94.31;96276.69;5057671;28;20204;-74
2021/10/02 04:27:11;;;;;;;14.83;8.20;;;;;;;13.50;94.66;96283.25;5055370;28;20200;-73
2021/10/02 04:29:38;;;;;;;16.80;8.37;;;;;;;13.43;94.65;96273.63;5057565;28;20204;-74
2021/10/02 04:32:06;;;;;;;17.03;8.27;;;;;;;13.43;94.40;96273.63;5056791;28;20862;-74
2021/10/02 04:34:33;;;;;;;14.57;8.10;;;;;;;13.20;93.86;96274.88;5056876;28;20200;-74
2021/10/02 04:37:00;;;;;;;14.07;8.13;;;;;;;13.16;94.05;96273.63;5056005;28;20231;-74
2021/10/02 04:39:26;;;;;;;16.40;8.00;;;;;;;13.18;94.38;96271.63;5057742;28;20223;-74
2021/10/02 04:41:53;;;;;;;16.03;7.93;;;;;;;13.24;94.64;96270.81;5056823;28;20208;-74
2021/10/02 04:44:20;;;;;;;19.83;8.60;;;;;;;13.27;94.79;96276.56;5056789;28;20246;-74
2021/10/02 04:46:46;;;;;;;18.67;8.35;;;;;;;13.21;94.45;96273.88;5055831;28;20208;-74
2021/10/02 04:49:14;;;;;;;16.80;8.23;;;;;;;13.42;94.18;96266.69;5056755;28;20211;-74
2021/10/02 04:51:41;;;;;;;18.53;8.07;;;;;;;13.17;94.61;96273.44;5056764;28;20215;-74
2021/10/02 04:54:09;;;;;;;14.13;7.82;;;;;;;13.13;94.77;96269.53;5056525;28;20220;-74
2021/10/02 04:56:35;;;;;;;16.73;8.03;;;;;;;13.17;93.99;96275.25;5056160;28;20246;-74
2021/10/02 04:59:02;;;;;;;14.67;7.63;;;;;;;12.96;94.41;96283.25;5057272;28;20225;-74
2021/10/02 05:01:28;;;;;;;16.87;7.67;;;;;;;13.11;94.54;96286.59;5056877;28;20196;-74
2021/10/02 05:03:57;;;;;;;17.00;9.17;;;;;;;13.28;94.69;96287.97;5056504;28;20227;-74
2021/10/02 05:06:25;;;;;;;17.43;8.37;;;;;;;13.37;94.40;96284.19;5056129;28;20200;-74
2021/10/02 05:08:51;;;;;;;20.13;7.97;;;;;;;13.09;94.32;96288.63;5057216;28;20209;-74
2021/10/02 05:11:18;;;;;;;13.70;7.73;;;;;;;13.14;93.53;96294.19;5056990;28;20204;-74
2021/10/02 05:13:45;;;;;;;16.73;8.45;;;;;;;13.10;93.55;96296.38;5055721;28;20274;-74
2021/10/02 05:16:11;;;;;;;15.07;8.27;;;;;;;13.24;94.06;96292.00;5055371;28;20216;-75
2021/10/02 05:18:38;;;;;;;15.37;8.50;;;;;;;13.17;93.72;96294.59;5055468;28;20235;-74
2021/10/02 05:21:04;;;;;;;19.70;8.13;;;;;;;13.18;93.88;96295.44;5052950;28;20212;-74
2021/10/02 05:23:32;;;;;;;15.43;8.70;;;;;;;13.37;93.31;96294.78;5057846;28;20220;-74
2021/10/02 05:25:59;;;;;;;15.55;8.57;;;;;;;13.26;93.88;96290.78;5060068;28;20200;-74
2021/10/02 05:28:25;;;;;;;15.07;8.65;;;;;;;13.24;94.41;96284.91;5059400;28;20204;-74
2021/10/02 05:30:52;;;;;;;18.37;8.97;;;;;;;13.28;94.26;96282.69;5060600;28;20208;-74
2021/10/02 05:33:19;;;;;;;16.07;8.63;;;;;;;13.37;94.08;96281.53;5060902;28;20234;-74
2021/10/02 05:35:46;;;;;;;17.60;9.37;;;;;;;13.35;93.88;96287.00;5059316;28;21121;-74
2021/10/02 05:38:14;;;;;;;14.00;7.90;;;;;;;13.39;93.50;96289.09;5059823;28;20646;-74
2021/10/02 05:40:41;;;;;;;15.17;7.57;;;;;;;13.39;94.08;96291.72;5060927;28;20205;-74
2021/10/02 05:43:08;;;;;;;17.57;8.80;;;;;;;13.24;94.20;96297.28;5059217;28;20224;-74
2021/10/02 05:45:34;;;;;;;15.93;8.43;;;;;;;13.33;93.69;96291.69;5059107;28;20208;-74
2021/10/02 05:48:01;;;;;;;17.30;8.87;;;;;;;13.37;93.52;96286.81;5059943;28;20672;-74
2021/10/02 05:50:27;;;;;;;18.98;8.15;;;;;;;13.37;93.34;96281.53;5059968;28;20197;-74
2021/10/02 05:52:54;;;;;;;18.37;7.90;;;;;;;13.33;93.00;96282.91;5059401;28;20224;-74
2021/10/02 05:55:21;;;;;;;18.00;8.70;;;;;;;13.36;92.87;96277.25;5060149;28;20215;-74
2021/10/02 05:57:48;;;;;;;14.83;8.53;;;;;;;13.53;93.16;96282.88;5059197;28;20232;-74
2021/10/02 06:00:15;;;;;;;19.20;8.90;;;;;;;13.48;92.81;96279.19;5059902;28;20201;-74
2021/10/02 06:02:41;;;;;;;20.50;12.10;;;;;;;13.43;92.89;96279.75;5060030;28;20232;-74
2021/10/02 06:05:08;;;;;;;18.27;8.77;;;;;;;13.47;93.83;96278.34;5059704;28;20211;-74
2021/10/02 06:07:35;;;;;;;20.38;10.90;;;;;;;13.55;93.74;96275.53;5058386;28;20204;-74
2021/10/02 06:10:02;;;;;;;16.93;9.13;;;;;;;13.68;93.67;96278.28;5059590;28;20210;-74
2021/10/02 06:12:28;;;;;;;12.53;7.70;;;;;;;13.62;93.41;96288.81;5059024;28;20225;-74
2021/10/02 06:14:56;;;;;;;14.87;6.73;;;;;;;13.85;92.70;96284.91;5059533;28;20224;-74
2021/10/02 06:17:23;;;;;;;16.53;8.50;;;;;;;13.57;93.50;96294.69;5059686;28;20219;-74
2021/10/02 06:19:49;;;;;;;21.00;9.40;;;;;;;13.64;93.17;96300.84;5058931;28;20787;-74
2021/10/02 06:22:16;;;;;;;17.97;8.40;;;;;;;13.59;93.29;96297.16;5055831;28;20201;-74
2021/10/02 06:24:42;;;;;;;16.50;7.83;;;;;;;13.72;92.84;96298.06;5058383;28;20213;-74
2021/10/02 06:27:09;;;;;;;17.00;8.73;;;;;;;13.80;92.84;96299.75;5056962;28;20727;-74
2021/10/02 06:29:36;;;;;;;15.90;8.33;;;;;;;13.77;93.48;96290.34;5057610;28;20201;-74
2021/10/02 06:32:04;;;;;;;16.60;8.40;;;;;;;14.06;92.76;96290.09;5058156;28;20216;-74
2021/10/02 06:34:30;;;;;;;14.93;8.23;;;;;;;13.89;93.40;96296.72;5057591;28;20211;-74
2021/10/02 06:36:57;;;;;;;15.90;8.97;;;;;;;13.99;93.29;96284.75;5058662;28;20225;-74
2021/10/02 06:39:23;;;;;;;15.17;8.90;;;;;;;14.07;93.66;96289.06;5058534;28;20220;-74
2021/10/02 06:41:50;;;;;;;18.10;8.73;;;;;;;14.07;94.67;96291.72;5058687;28;20208;-74
2021/10/02 06:44:17;;;;;;;17.40;9.10;;;;;;;14.21;94.86;96282.84;5058520;28;20224;-74
2021/10/02 06:46:43;;;;;;;20.77;10.20;;;;;;;14.31;94.73;96278.00;5058282;28;20219;-74
2021/10/02 06:49:11;;;;;;;19.38;9.40;;;;;;;14.61;94.68;96274.81;5058399;28;20200;-74
2021/10/02 06:51:37;;;;;;;22.20;11.15;;;;;;;14.56;94.84;96281.75;5058562;28;20223;-74
2021/10/02 06:54:04;;;;;;;22.75;10.25;;;;;;;14.74;94.22;96273.00;5058993;28;20232;-74
2021/10/02 06:56:31;;;;;;;19.90;10.88;;;;;;;14.91;94.44;96270.81;5057836;28;20205;-74
2021/10/02 06:58:57;;;;;;;21.50;10.90;;;;;;;15.03;94.33;96272.66;5058818;28;20231;-74
2021/10/02 07:01:24;;;;;;;22.13;11.57;;;;;;;15.25;93.62;96268.81;5058001;28;20216;-74
2021/10/02 07:03:51;;;;;;;22.58;11.20;;;;;;;15.23;94.43;96268.19;5058995;28;20236;-74
2021/10/02 07:06:19;;;;;;;22.77;10.48;;;;;;;15.64;93.00;96266.09;5058033;28;20213;-75
2021/10/02 07:08:45;;;;;;;24.67;9.93;;;;;;;15.69;91.36;96268.97;5058722;28;20981;-74
2021/10/02 07:11:12;;;;;;;23.60;9.82;;;;;;;15.85;90.89;96264.03;5058668;28;20211;-75
2021/10/02 07:13:38;;;;;;;21.30;10.38;;;;;;;15.86;93.51;96263.00;5057990;28;20224;-75
2021/10/02 07:16:05;;;;;;;19.27;10.05;;;;;;;15.88;93.55;96256.47;5057784;28;20908;-74
2021/10/02 07:18:32;;;;;;;124.63;13.23;;;;;;;16.15;93.14;96251.84;5059140;28;20665;-75
2021/10/02 07:20:58;;;;;;;21.55;10.02;;;;;;;16.24;90.34;96251.41;5055689;28;20201;-75
2021/10/02 07:23:29;;;;;;;21.30;10.60;;;;;;;16.47;88.63;96250.91;5058702;28;20216;-74
2021/10/02 07:25:56;;;;;;;21.35;10.30;;;;;;;16.08;92.26;96251.88;5057637;28;20205;-75
2021/10/02 07:28:23;;;;;;;21.50;10.05;;;;;;;16.24;91.81;96251.41;5058029;28;20207;-75
2021/10/02 07:30:49;;;;;;;17.50;8.50;;;;;;;16.31;88.78;96251.41;5057869;28;20216;-74
2021/10/02 07:33:16;;;;;;;18.48;8.60;;;;;;;16.58;89.37;96259.03;5058132;28;20835;-74
2021/10/02 07:35:42;;;;;;;17.27;8.45;;;;;;;16.72;87.81;96260.59;5056864;28;21252;-75
2021/10/02 07:38:09;;;;;;;17.95;9.27;;;;;;;16.71;86.37;96258.97;5056571;28;20216;-75
2021/10/02 07:40:39;;;;;;;21.90;7.68;;;;;;;16.95;86.58;96251.00;5054892;28;20569;-75
2021/10/02 07:43:06;;;;;;;14.23;7.68;;;;;;;16.77;86.70;96252.78;5056050;28;20229;-75
2021/10/02 07:45:35;;;;;;;17.92;8.48;;;;;;;16.92;86.93;96254.13;5055408;28;20204;-74
2021/10/02 07:48:03;;;;;;;14.93;8.80;;;;;;;16.66;89.73;96253.47;5056746;28;20291;-74
2021/10/02 07:50:30;;;;;;;19.40;8.93;;;;;;;16.61;89.82;96264.75;5056366;28;20200;-75
2021/10/02 07:52:57;;;;;;;19.95;10.02;;;;;;;16.61;90.62;96269.25;5055069;28;20704;-75
2021/10/02 07:55:25;;;;;;;21.35;9.25;;;;;;;16.60;89.50;96262.31;5055939;28;20216;-75
2021/10/02 07:57:54;;;;;;;15.15;8.88;;;;;;;16.78;86.89;96260.56;5056475;28;20211;-75
2021/10/02 08:00:21;;;;;;;18.33;8.88;;;;;;;16.92;86.54;96261.31;5056547;28;20574;-75
2021/10/02 08:02:50;;;;;;;17.70;9.13;;;;;;;17.01;86.51;96249.38;5056098;28;20225;-74
2021/10/02 08:05:17;;;;;;;14.73;8.60;;;;;;;16.98;85.83;96252.44;5057090;28;20200;-75
2021/10/02 08:07:45;;;;;;;16.23;8.07;;;;;;;17.21;85.32;96261.50;5055175;28;20873;-75
2021/10/02 08:10:13;;;;;;;13.90;8.00;;;;;;;17.11;86.62;96258.50;5056182;28;20201;-75
2021/10/02 08:12:40;;;;;;;13.38;7.80;;;;;;;17.26;84.76;96262.50;5056002;28;20231;-75
2021/10/02 08:15:10;;;;;;;14.57;7.93;;;;;;;17.35;86.01;96261.19;5056022;28;20584;-75
2021/10/02 08:17:40;;;;;;;14.27;7.97;;;;;;;17.24;86.32;96255.72;5053941;28;20197;-75
2021/10/02 08:20:10;;;;;;;19.92;8.13;;;;;;;17.19;86.38;96258.22;5056005;28;21133;-75
2021/10/02 08:22:39;;;;;;;14.82;7.88;;;;;;;17.08;86.73;96265.06;5052505;28;20388;-75
2021/10/02 08:25:07;;;;;;;16.10;8.13;;;;;;;17.09;86.31;96274.69;5055731;28;20208;-75
2021/10/02 08:27:35;;;;;;;12.75;7.47;;;;;;;16.84;87.50;96272.19;5054902;28;20203;-75
2021/10/02 08:30:02;;;;;;;16.08;8.02;;;;;;;16.81;87.34;96280.59;5056047;28;20200;-74
2021/10/02 08:32:30;;;;;;;17.02;8.50;;;;;;;16.85;88.87;96287.97;5056100;28;20648;-75
2021/10/02 08:34:57;;;;;;;13.45;7.53;;;;;;;16.75;88.33;96273.47;5055947;28;20200;-75
2021/10/02 08:37:24;;;;;;;17.83;8.40;;;;;;;16.85;87.00;96273.81;5055164;28;20219;-75
2021/10/02 08:39:50;;;;;;;16.60;7.80;;;;;;;17.22;86.34;96268.44;5055469;28;20220;-75
2021/10/02 08:42:18;;;;;;;14.93;8.07;;;;;;;17.19;85.76;96261.69;5055411;28;20212;-75
2021/10/02 08:44:45;;;;;;;15.05;7.00;;;;;;;17.41;84.78;96264.81;5055426;28;20204;-75
2021/10/02 08:47:12;;;;;;;14.85;7.72;;;;;;;17.38;85.04;96267.94;5055333;28;20207;-75
2021/10/02 08:49:44;;;;;;;16.40;8.30;;;;;;;17.61;84.63;96266.28;5055239;28;20689;-75
2021/10/02 08:52:12;;;;;;;14.82;8.43;;;;;;;17.48;85.39;96269.06;5055981;28;20208;-75
2021/10/02 08:54:41;;;;;;;18.00;8.68;;;;;;;17.65;84.01;96264.81;5056129;28;20215;-75
2021/10/02 08:57:09;;;;;;;14.95;8.30;;;;;;;17.84;83.29;96263.81;5053701;28;20204;-75
2021/10/02 08:59:36;;;;;;;13.88;8.57;;;;;;;17.95;82.22;96257.75;5059676;28;20224;-75
2021/10/02 09:02:03;;;;;;;14.75;8.13;;;;;;;17.78;84.94;96265.50;5058917;28;20204;-75
2021/10/02 09:04:30;;;;;;;19.02;9.13;;;;;;;17.87;84.22;96260.69;5060997;28;20200;-75
2021/10/02 09:07:00;;;;;;;17.30;8.55;;;;;;;18.22;82.06;96243.91;5060715;28;20200;-75
2021/10/02 09:09:27;;;;;;;16.02;8.43;;;;;;;18.07;84.19;96242.63;5061279;28;20688;-75
2021/10/02 09:11:54;;;;;;;14.75;8.82;;;;;;;18.13;81.64;96239.06;5061668;28;20376;-75
2021/10/02 09:14:20;;;;;;;14.98;8.73;;;;;;;18.23;80.74;96236.72;5061177;28;20261;-75
2021/10/02 09:16:47;;;;;;;21.58;9.13;;;;;;;18.65;81.01;96240.06;5060602;28;20204;-75
2021/10/02 09:19:14;;;;;;;14.93;8.05;;;;;;;18.64;80.61;96233.09;5060355;28;20734;-75
2021/10/02 09:21:44;;;;;;;15.55;8.00;;;;;;;18.80;81.22;96232.47;5060771;28;20584;-75
2021/10/02 09:24:27;;;;;;;17.88;8.38;;;;;;;18.93;80.32;96237.59;5058491;28;20794;-75
2021/10/02 09:26:55;;;;;;;15.43;8.40;;;;;;;18.78;80.75;96241.75;5059518;28;20204;-75
2021/10/02 09:29:36;;;;;;;15.55;8.15;;;;;;;18.91;80.31;96237.00;5060395;28;20197;-75
2021/10/02 09:32:03;;;;;;;17.35;8.45;;;;;;;18.86;81.60;96233.41;5060001;28;20204;-75
2021/10/02 09:34:29;;;;;;;13.18;7.25;;;;;;;18.92;80.97;96237.84;5059935;28;20211;-75
2021/10/02 09:36:56;;;;;;;14.57;7.88;;;;;;;19.06;81.23;96232.09;5059319;28;20220;-75
2021/10/02 09:39:39;;;;;;;11.95;5.75;;;;;;;18.80;80.76;96239.63;5060144;28;21131;-75
2021/10/02 09:42:19;;;;;;;16.88;9.10;;;;;;;18.88;82.16;96224.13;5060695;28;20208;-75
2021/10/02 09:44:46;;;;;;;17.92;8.88;;;;;;;19.39;81.13;96235.84;5060653;28;20214;-75
2021/10/02 09:47:14;;;;;;;17.02;8.13;;;;;;;19.73;78.06;96227.84;5059985;28;20204;-75
2021/10/02 09:49:42;;;;;;;17.75;9.05;;;;;;;19.88;79.22;96220.19;5060793;28;20196;-75
2021/10/02 09:52:27;;;;;;;15.07;8.77;;;;;;;20.33;76.69;96218.47;5060320;28;20266;-75
2021/10/02 09:54:54;;;;;;;17.05;9.38;;;;;;;19.95;77.03;96209.38;5059471;28;20215;-75
2021/10/02 09:57:21;;;;;;;17.88;8.93;;;;;;;20.08;77.17;96209.13;5059746;28;20281;-75
2021/10/02 09:59:48;;;;;;;16.25;9.07;;;;;;;20.31;77.39;96207.19;5060211;28;20224;-75
2021/10/02 10:02:16;;;;;;;15.20;8.93;;;;;;;20.28;78.62;96199.63;5057882;28;20206;-75
2021/10/02 10:04:49;;;;;;;16.70;8.90;;;;;;;20.82;77.46;96199.91;5059667;28;20215;-75
2021/10/02 10:07:15;;;;;;;20.20;10.07;;;;;;;20.46;76.81;96200.25;5057920;28;20213;-75
2021/10/02 10:09:42;;;;;;;18.83;8.57;;;;;;;20.71;74.22;96202.59;5059152;28;20200;-75
2021/10/02 10:12:10;;;;;;;13.30;8.07;;;;;;;20.77;76.58;96199.00;5059053;28;20200;-75
2021/10/02 10:14:37;;;;;;;15.77;7.95;;;;;;;20.05;76.59;96189.00;5059288;28;20205;-75
2021/10/02 10:17:08;;;;;;;17.13;9.35;;;;;;;20.54;77.97;96204.44;5058514;28;20235;-75
2021/10/02 10:19:35;;;;;;;16.67;8.85;;;;;;;20.86;75.52;96193.84;5058791;28;20224;-76
2021/10/02 10:22:09;;;;;;;20.30;9.48;;;;;;;21.30;75.78;96190.28;5058925;28;20211;-75
2021/10/02 10:24:36;;;;;;;18.75;9.00;;;;;;;21.20;75.87;96184.75;5058659;28;20220;-75
2021/10/02 10:27:04;;;;;;;15.38;8.48;;;;;;;21.31;76.37;96186.56;5058378;28;20205;-75
2021/10/02 10:29:44;;;;;;;15.95;9.02;;;;;;;21.71;73.79;96179.13;5058468;28;20735;-75
2021/10/02 10:32:12;;;;;;;16.65;8.93;;;;;;;21.25;77.09;96173.31;5057667;28;20211;-75
2021/10/02 10:34:41;;;;;;;18.73;9.65;;;;;;;21.37;73.83;96174.81;5058757;28;21221;-75
2021/10/02 10:37:09;;;;;;;15.55;8.98;;;;;;;21.29;75.04;96172.56;5058402;28;20220;-75
2021/10/02 10:39:36;;;;;;;14.38;8.50;;;;;;;21.39;74.57;96166.56;5058019;28;20220;-75
2021/10/02 10:42:03;;;;;;;17.10;8.68;;;;;;;21.82;71.78;96165.63;5057911;28;20204;-75
2021/10/02 10:44:31;;;;;;;13.18;7.80;;;;;;;22.06;71.91;96162.44;5058626;28;20220;-75
2021/10/02 10:46:59;;;;;;;16.63;8.70;;;;;;;22.36;72.76;96160.16;5058563;28;20200;-75
2021/10/02 10:49:26;;;;;;;13.25;8.10;;;;;;;22.27;71.34;96164.34;5058136;28;20197;-75
2021/10/02 10:51:59;;;;;;;13.13;7.55;;;;;;;22.50;69.76;96155.22;5058075;28;20970;-75
2021/10/02 10:54:26;;;;;;;16.13;8.70;;;;;;;21.97;72.11;96156.94;5057430;28;20232;-75
2021/10/02 10:56:52;;;;;;;16.38;8.23;;;;;;;22.11;73.61;96151.78;5056637;28;20204;-76
2021/10/02 10:59:19;;;;;;;14.05;7.82;;;;;;;22.23;70.41;96151.66;5058151;28;20228;-75
2021/10/02 11:01:48;;;;;;;14.68;7.90;;;;;;;22.64;71.32;96146.50;5055765;28;20259;-75
2021/10/02 11:04:42;;;;;;;14.50;7.38;;;;;;;22.88;70.62;96143.22;5058202;28;20221;-75
2021/10/02 11:07:13;;;;;;;13.23;7.63;;;;;;;22.25;71.86;96136.91;5020446;28;20228;-75
2021/10/02 11:09:41;;;;;;;13.02;7.35;;;;;;;22.13;70.94;96136.25;5057747;28;20327;-75
2021/10/02 11:12:09;;;;;;;18.13;7.60;;;;;;;22.55;70.78;96134.59;5057792;28;20678;-75
2021/10/02 11:15:01;;;;;;;13.68;7.95;;;;;;;22.74;71.55;96125.91;5057479;28;20211;-75
2021/10/02 11:17:47;;;;;;;14.18;7.60;;;;;;;22.79;71.01;96127.84;5057037;28;20246;-75
2021/10/02 11:20:41;;;;;;;14.38;7.20;;;;;;;22.90;69.08;96116.13;5057306;28;20729;-75
2021/10/02 11:23:56;;;;;;;13.07;6.65;;;;;;;23.18;68.55;96108.59;5042887;28;20220;-75
2021/10/02 11:26:25;;;;;;;12.75;7.18;;;;;;;23.01;66.33;96109.78;5055926;28;20209;-76
2021/10/02 11:29:30;;;;;;;14.02;6.30;;;;;;;23.30;65.65;96097.66;5056327;28;20671;-75
2021/10/02 11:32:31;;;;;;;10.98;6.13;;;;;;;23.38;63.44;96096.09;5057509;28;20654;-75
2021/10/02 11:35:17;;;;;;;9.93;5.28;;;;;;;23.63;64.00;96082.78;4995529;28;20224;-76
2021/10/02 11:37:46;;;;;;;12.27;5.80;;;;;;;23.52;66.82;96077.59;5051133;28;20223;-75
2021/10/02 11:40:45;;;;;;;10.05;5.20;;;;;;;23.59;63.55;96073.59;5057455;28;20232;-76
2021/10/02 11:43:30;;;;;;;11.55;5.10;;;;;;;23.43;61.30;96071.91;5056396;28;20274;-75
2021/10/02 11:46:06;;;;;;;10.38;4.97;;;;;;;23.21;62.48;96069.63;5055260;28;20216;-76
2021/10/02 11:48:38;;;;;;;12.88;5.00;;;;;;;23.17;61.97;96055.88;5055777;28;20201;-75
2021/10/02 11:51:25;;;;;;;8.35;4.85;;;;;;;23.00;62.73;96057.91;5057008;28;20451;-76
2021/10/02 11:53:55;;;;;;;10.35;5.05;;;;;;;22.91;63.48;96053.22;5055043;28;20881;-76
2021/10/02 11:56:25;;;;;;;10.55;4.82;;;;;;;22.84;63.96;96047.28;5055454;28;20633;-76
2021/10/02 11:58:53;;;;;;;7.97;4.47;;;;;;;23.00;64.00;96032.91;5056154;28;20215;-76
2021/10/02 12:01:22;;;;;;;10.43;4.88;;;;;;;22.68;65.74;96032.09;5053269;28;20203;-76
2021/10/02 12:03:59;;;;;;;10.82;4.80;;;;;;;22.95;63.45;96024.75;5055636;28;20732;-75
2021/10/02 12:06:25;;;;;;;13.80;4.57;;;;;;;22.78;65.33;96038.38;5055498;28;20212;-76
2021/10/02 12:08:52;;;;;;;11.90;4.70;;;;;;;22.67;63.65;96030.50;5054982;28;20208;-76
2021/10/02 12:11:19;;;;;;;11.52;4.50;;;;;;;22.85;62.00;96030.09;5056398;28;20200;-76
2021/10/02 12:13:49;;;;;;;7.13;4.18;;;;;;;23.10;62.10;96022.22;5055062;28;20229;-75
2021/10/02 12:16:20;;;;;;;8.80;4.45;;;;;;;23.12;62.10;96020.09;5055983;28;20241;-76
2021/10/02 12:18:51;;;;;;;7.75;4.10;;;;;;;23.16;61.84;96011.22;5055521;28;20209;-76
2021/10/02 12:21:40;;;;;;;9.10;4.38;;;;;;;23.31;60.88;96006.75;5055374;28;20224;-76
2021/10/02 12:24:10;;;;;;;6.88;3.85;;;;;;;23.29;59.79;96004.59;5055097;28;20471;-76
2021/10/02 12:26:40;;;;;;;7.53;4.28;;;;;;;23.17;60.88;96001.31;5054898;28;20200;-75
2021/10/02 12:29:10;;;;;;;8.68;4.43;;;;;;;23.01;62.45;95996.91;5055303;28;20671;-75
2021/10/02 12:32:01;;;;;;;9.07;4.20;;;;;;;23.31;61.29;95993.31;5055519;28;20696;-75